Soda Springs, California
Current Conditions -  °F | °C
As of 3:55 PM on Wednesday 28 Jan 2015 (Local Time) from KTRK Reporting Station
Few Clouds Few Clouds  
Wind Chill: 44°   Ceiling: Unl
Heat Index: 48°   Visibility: 10mi
Dew Point: 28°   Wind: 9mph
Humidity: 46%   Direction: 150°SSE
Pressure: 30.26"   Gusts: NA
Location:  39.32°N, 120.38°W
Report Text: KTRK 282355Z 15008KT 10SM FEW060 09/M02 A3026 RMK NOSPECI 10100
Loading
Personal Weather Stations






























Interactive Weather Map New forecast layout! Learn more

10-Day Weather Forecast

Advertisements
Track Severe Weather on mobile